sensor_id;sensor_type;location;lat;lon;timestamp;P1;durP1;ratioP1;P2;durP2;ratioP2
4448;SDS011;2237;51.870;6.160;2023-08-01T05:47:07;14.60;;;5.90;;
4448;SDS011;2237;51.870;6.160;2023-08-01T05:49:34;11.82;;;5.85;;
4448;SDS011;2237;51.870;6.160;2023-08-01T05:52:00;14.70;;;4.78;;
4448;SDS011;2237;51.870;6.160;2023-08-01T05:54:26;12.85;;;6.07;;
4448;SDS011;2237;51.870;6.160;2023-08-01T05:56:53;14.48;;;6.25;;
4448;SDS011;2237;51.870;6.160;2023-08-01T05:59:20;13.18;;;5.85;;
4448;SDS011;2237;51.870;6.160;2023-08-01T06:01:46;17.50;;;6.03;;
4448;SDS011;2237;51.870;6.160;2023-08-01T06:04:13;18.90;;;5.95;;
4448;SDS011;2237;51.870;6.160;2023-08-01T06:06:39;15.32;;;6.85;;
4448;SDS011;2237;51.870;6.160;2023-08-01T06:09:06;16.05;;;6.00;;
4448;SDS011;2237;51.870;6.160;2023-08-01T06:11:32;18.65;;;5.60;;
4448;SDS011;2237;51.870;6.160;2023-08-01T06:13:59;12.18;;;4.75;;
4448;SDS011;2237;51.870;6.160;2023-08-01T06:16:26;9.23;;;3.78;;
4448;SDS011;2237;51.870;6.160;2023-08-01T06:18:53;11.15;;;4.30;;
4448;SDS011;2237;51.870;6.160;2023-08-01T06:21:20;13.43;;;5.35;;
4448;SDS011;2237;51.870;6.160;2023-08-01T06:23:46;15.13;;;4.20;;
4448;SDS011;2237;51.870;6.160;2023-08-01T06:26:12;12.40;;;4.40;;
4448;SDS011;2237;51.870;6.160;2023-08-01T06:28:41;9.75;;;3.58;;
4448;SDS011;2237;51.870;6.160;2023-08-01T06:31:08;10.43;;;4.50;;
4448;SDS011;2237;51.870;6.160;2023-08-01T06:33:34;11.43;;;4.15;;
4448;SDS011;2237;51.870;6.160;2023-08-01T06:36:01;10.38;;;4.28;;
4448;SDS011;2237;51.870;6.160;2023-08-01T06:38:27;11.50;;;4.57;;
4448;SDS011;2237;51.870;6.160;2023-08-01T06:40:54;9.38;;;4.07;;
4448;SDS011;2237;51.870;6.160;2023-08-01T06:43:20;13.15;;;4.55;;
4448;SDS011;2237;51.870;6.160;2023-08-01T06:45:48;9.15;;;3.78;;
4448;SDS011;2237;51.870;6.160;2023-08-01T06:48:15;10.30;;;3.70;;
4448;SDS011;2237;51.870;6.160;2023-08-01T06:50:41;10.75;;;3.15;;
4448;SDS011;2237;51.870;6.160;2023-08-01T06:53:08;7.97;;;2.88;;
4448;SDS011;2237;51.870;6.160;2023-08-01T06:55:34;8.07;;;3.85;;
4448;SDS011;2237;51.870;6.160;2023-08-01T06:58:00;8.10;;;2.60;;
4448;SDS011;2237;51.870;6.160;2023-08-01T07:00:27;10.82;;;3.30;;
4448;SDS011;2237;51.870;6.160;2023-08-01T07:02:53;7.90;;;2.85;;
4448;SDS011;2237;51.870;6.160;2023-08-01T07:05:20;6.43;;;3.05;;
4448;SDS011;2237;51.870;6.160;2023-08-01T07:07:46;6.88;;;2.97;;
4448;SDS011;2237;51.870;6.160;2023-08-01T07:10:13;12.68;;;2.83;;
4448;SDS011;2237;51.870;6.160;2023-08-01T07:12:39;10.95;;;3.45;;
4448;SDS011;2237;51.870;6.160;2023-08-01T07:15:06;7.68;;;2.53;;
4448;SDS011;2237;51.870;6.160;2023-08-01T07:17:33;9.15;;;2.65;;
4448;SDS011;2237;51.870;6.160;2023-08-01T07:19:59;10.10;;;3.15;;
4448;SDS011;2237;51.870;6.160;2023-08-01T07:22:25;9.80;;;2.58;;
4448;SDS011;2237;51.870;6.160;2023-08-01T07:24:52;7.97;;;2.60;;
4448;SDS011;2237;51.870;6.160;2023-08-01T07:27:22;7.72;;;3.08;;
4448;SDS011;2237;51.870;6.160;2023-08-01T07:29:48;5.55;;;2.50;;
4448;SDS011;2237;51.870;6.160;2023-08-01T07:32:15;8.68;;;2.92;;
4448;SDS011;2237;51.870;6.160;2023-08-01T07:34:41;8.43;;;2.70;;
4448;SDS011;2237;51.870;6.160;2023-08-01T07:37:07;6.22;;;1.90;;
4448;SDS011;2237;51.870;6.160;2023-08-01T07:39:34;6.97;;;2.25;;
4448;SDS011;2237;51.870;6.160;2023-08-01T07:42:01;7.88;;;3.00;;
4448;SDS011;2237;51.870;6.160;2023-08-01T07:44:27;4.55;;;1.90;;
4448;SDS011;2237;51.870;6.160;2023-08-01T07:46:55;12.85;;;3.28;;
4448;SDS011;2237;51.870;6.160;2023-08-01T07:49:23;9.02;;;2.47;;
4448;SDS011;2237;51.870;6.160;2023-08-01T07:51:50;7.32;;;2.65;;
4448;SDS011;2237;51.870;6.160;2023-08-01T07:54:17;7.60;;;2.60;;
4448;SDS011;2237;51.870;6.160;2023-08-01T07:56:43;9.98;;;3.33;;
4448;SDS011;2237;51.870;6.160;2023-08-01T07:59:10;10.18;;;3.10;;
4448;SDS011;2237;51.870;6.160;2023-08-01T08:01:36;5.10;;;2.25;;
4448;SDS011;2237;51.870;6.160;2023-08-01T08:04:03;9.10;;;2.88;;
4448;SDS011;2237;51.870;6.160;2023-08-01T08:06:29;9.32;;;2.67;;
4448;SDS011;2237;51.870;6.160;2023-08-01T08:08:57;7.47;;;2.13;;
4448;SDS011;2237;51.870;6.160;2023-08-01T08:11:23;7.80;;;2.53;;
4448;SDS011;2237;51.870;6.160;2023-08-01T08:13:49;4.45;;;1.88;;
4448;SDS011;2237;51.870;6.160;2023-08-01T08:16:16;6.15;;;2.28;;
4448;SDS011;2237;51.870;6.160;2023-08-01T08:18:43;8.60;;;2.55;;
4448;SDS011;2237;51.870;6.160;2023-08-01T08:21:12;7.45;;;2.47;;
4448;SDS011;2237;51.870;6.160;2023-08-01T08:23:38;11.18;;;2.50;;
4448;SDS011;2237;51.870;6.160;2023-08-01T08:26:05;6.72;;;1.95;;
4448;SDS011;2237;51.870;6.160;2023-08-01T08:28:33;4.97;;;1.80;;
4448;SDS011;2237;51.870;6.160;2023-08-01T08:31:00;5.88;;;1.73;;
4448;SDS011;2237;51.870;6.160;2023-08-01T08:33:30;4.95;;;2.00;;
4448;SDS011;2237;51.870;6.160;2023-08-01T08:35:57;4.38;;;1.55;;
4448;SDS011;2237;51.870;6.160;2023-08-01T08:38:23;2.85;;;0.93;;
4448;SDS011;2237;51.870;6.160;2023-08-01T08:43:19;10.55;;;1.60;;
4448;SDS011;2237;51.870;6.160;2023-08-01T08:45:46;10.45;;;2.17;;
4448;SDS011;2237;51.870;6.160;2023-08-01T08:48:16;7.20;;;3.08;;
4448;SDS011;2237;51.870;6.160;2023-08-01T08:50:45;8.65;;;1.80;;
4448;SDS011;2237;51.870;6.160;2023-08-01T08:53:12;4.82;;;1.55;;
4448;SDS011;2237;51.870;6.160;2023-08-01T08:55:39;8.05;;;1.73;;
4448;SDS011;2237;51.870;6.160;2023-08-01T08:58:06;5.80;;;1.35;;
4448;SDS011;2237;51.870;6.160;2023-08-01T09:00:35;5.47;;;1.85;;
4448;SDS011;2237;51.870;6.160;2023-08-01T09:03:02;4.25;;;1.88;;
4448;SDS011;2237;51.870;6.160;2023-08-01T09:05:30;5.38;;;2.10;;
4448;SDS011;2237;51.870;6.160;2023-08-01T09:08:01;6.57;;;1.90;;
4448;SDS011;2237;51.870;6.160;2023-08-01T09:10:33;6.05;;;1.40;;
4448;SDS011;2237;51.870;6.160;2023-08-01T09:13:00;4.20;;;1.50;;
4448;SDS011;2237;51.870;6.160;2023-08-01T09:15:27;4.03;;;1.13;;
4448;SDS011;2237;51.870;6.160;2023-08-01T09:17:54;6.68;;;1.73;;
4448;SDS011;2237;51.870;6.160;2023-08-01T09:20:27;5.15;;;1.48;;
4448;SDS011;2237;51.870;6.160;2023-08-01T09:22:54;4.93;;;1.50;;
4448;SDS011;2237;51.870;6.160;2023-08-01T09:25:30;4.15;;;1.60;;
4448;SDS011;2237;51.870;6.160;2023-08-01T09:27:58;4.00;;;1.20;;
4448;SDS011;2237;51.870;6.160;2023-08-01T09:30:24;1.70;;;0.88;;
4448;SDS011;2237;51.870;6.160;2023-08-01T09:32:52;4.05;;;1.50;;
4448;SDS011;2237;51.870;6.160;2023-08-01T09:35:22;4.72;;;1.50;;
4448;SDS011;2237;51.870;6.160;2023-08-01T09:37:49;7.68;;;1.77;;
4448;SDS011;2237;51.870;6.160;2023-08-01T09:40:15;2.47;;;0.93;;
4448;SDS011;2237;51.870;6.160;2023-08-01T09:42:45;8.43;;;1.35;;
4448;SDS011;2237;51.870;6.160;2023-08-01T09:45:12;5.25;;;1.35;;
4448;SDS011;2237;51.870;6.160;2023-08-01T09:47:40;4.68;;;1.50;;
4448;SDS011;2237;51.870;6.160;2023-08-01T09:50:11;4.35;;;0.93;;
4448;SDS011;2237;51.870;6.160;2023-08-01T09:52:39;5.00;;;1.42;;
4448;SDS011;2237;51.870;6.160;2023-08-01T09:55:05;5.68;;;1.10;;
4448;SDS011;2237;51.870;6.160;2023-08-01T09:57:32;4.18;;;1.50;;
4448;SDS011;2237;51.870;6.160;2023-08-01T10:00:03;4.70;;;1.40;;
4448;SDS011;2237;51.870;6.160;2023-08-01T10:02:31;5.70;;;1.63;;
4448;SDS011;2237;51.870;6.160;2023-08-01T10:04:59;4.70;;;1.33;;
4448;SDS011;2237;51.870;6.160;2023-08-01T10:07:28;2.08;;;0.80;;
4448;SDS011;2237;51.870;6.160;2023-08-01T10:09:57;5.68;;;1.02;;
4448;SDS011;2237;51.870;6.160;2023-08-01T10:12:28;2.17;;;0.70;;
4448;SDS011;2237;51.870;6.160;2023-08-01T10:14:55;2.25;;;0.93;;
4448;SDS011;2237;51.870;6.160;2023-08-01T10:17:23;2.17;;;0.88;;
4448;SDS011;2237;51.870;6.160;2023-08-01T10:19:51;3.50;;;0.95;;
4448;SDS011;2237;51.870;6.160;2023-08-01T10:22:22;1.70;;;0.93;;
4448;SDS011;2237;51.870;6.160;2023-08-01T10:24:50;3.85;;;0.77;;
4448;SDS011;2237;51.870;6.160;2023-08-01T10:27:20;4.55;;;1.40;;
4448;SDS011;2237;51.870;6.160;2023-08-01T10:29:57;4.32;;;1.25;;
4448;SDS011;2237;51.870;6.160;2023-08-01T10:32:38;6.47;;;1.50;;
4448;SDS011;2237;51.870;6.160;2023-08-01T10:35:05;2.97;;;0.98;;
4448;SDS011;2237;51.870;6.160;2023-08-01T10:37:43;6.90;;;1.63;;
4448;SDS011;2237;51.870;6.160;2023-08-01T10:40:11;5.13;;;1.92;;
4448;SDS011;2237;51.870;6.160;2023-08-01T10:42:44;3.45;;;1.17;;
4448;SDS011;2237;51.870;6.160;2023-08-01T10:45:21;3.58;;;0.88;;
4448;SDS011;2237;51.870;6.160;2023-08-01T10:47:51;2.33;;;0.85;;
4448;SDS011;2237;51.870;6.160;2023-08-01T10:50:18;3.53;;;1.27;;
4448;SDS011;2237;51.870;6.160;2023-08-01T10:52:45;2.75;;;0.70;;
4448;SDS011;2237;51.870;6.160;2023-08-01T10:55:13;2.60;;;0.98;;
4448;SDS011;2237;51.870;6.160;2023-08-01T10:57:47;3.83;;;1.00;;
4448;SDS011;2237;51.870;6.160;2023-08-01T11:00:18;4.20;;;0.80;;
4448;SDS011;2237;51.870;6.160;2023-08-01T11:02:50;1.38;;;0.90;;
4448;SDS011;2237;51.870;6.160;2023-08-01T11:07:57;2.63;;;1.00;;
4448;SDS011;2237;51.870;6.160;2023-08-01T11:10:28;7.78;;;1.20;;
4448;SDS011;2237;51.870;6.160;2023-08-01T11:12:57;2.47;;;0.77;;
4448;SDS011;2237;51.870;6.160;2023-08-01T11:15:24;2.50;;;0.85;;
4448;SDS011;2237;51.870;6.160;2023-08-01T11:17:51;2.30;;;0.93;;
4448;SDS011;2237;51.870;6.160;2023-08-01T11:20:20;1.55;;;0.52;;
4448;SDS011;2237;51.870;6.160;2023-08-01T11:22:55;4.07;;;1.00;;
4448;SDS011;2237;51.870;6.160;2023-08-01T11:28:07;2.53;;;0.85;;
4448;SDS011;2237;51.870;6.160;2023-08-01T11:30:35;2.10;;;0.57;;
4448;SDS011;2237;51.870;6.160;2023-08-01T11:33:02;3.90;;;0.98;;
4448;SDS011;2237;51.870;6.160;2023-08-01T11:35:39;1.65;;;0.75;;
4448;SDS011;2237;51.870;6.160;2023-08-01T11:38:06;5.22;;;1.13;;
4448;SDS011;2237;51.870;6.160;2023-08-01T11:40:33;3.25;;;0.82;;
4448;SDS011;2237;51.870;6.160;2023-08-01T11:43:00;3.83;;;1.50;;
4448;SDS011;2237;51.870;6.160;2023-08-01T11:45:27;2.67;;;0.60;;
4448;SDS011;2237;51.870;6.160;2023-08-01T11:47:53;3.13;;;1.05;;
4448;SDS011;2237;51.870;6.160;2023-08-01T11:50:24;12.65;;;1.00;;
4448;SDS011;2237;51.870;6.160;2023-08-01T11:52:52;2.20;;;0.90;;
4448;SDS011;2237;51.870;6.160;2023-08-01T11:55:22;3.30;;;0.80;;
4448;SDS011;2237;51.870;6.160;2023-08-01T11:57:56;4.03;;;0.90;;
4448;SDS011;2237;51.870;6.160;2023-08-01T12:00:28;2.78;;;0.90;;
4448;SDS011;2237;51.870;6.160;2023-08-01T12:05:40;4.55;;;0.60;;
4448;SDS011;2237;51.870;6.160;2023-08-01T12:08:14;2.10;;;0.70;;
4448;SDS011;2237;51.870;6.160;2023-08-01T12:10:45;2.55;;;0.80;;
4448;SDS011;2237;51.870;6.160;2023-08-01T12:13:24;3.67;;;0.77;;
4448;SDS011;2237;51.870;6.160;2023-08-01T12:15:52;4.50;;;0.90;;
4448;SDS011;2237;51.870;6.160;2023-08-01T12:18:21;3.20;;;0.73;;
4448;SDS011;2237;51.870;6.160;2023-08-01T12:20:54;6.45;;;1.27;;
4448;SDS011;2237;51.870;6.160;2023-08-01T12:23:21;1.10;;;0.60;;
4448;SDS011;2237;51.870;6.160;2023-08-01T12:25:47;3.00;;;0.93;;
4448;SDS011;2237;51.870;6.160;2023-08-01T12:28:14;1.70;;;0.85;;
4448;SDS011;2237;51.870;6.160;2023-08-01T12:30:41;3.33;;;1.00;;
4448;SDS011;2237;51.870;6.160;2023-08-01T12:33:08;4.97;;;1.00;;
4448;SDS011;2237;51.870;6.160;2023-08-01T12:35:35;3.25;;;1.00;;
4448;SDS011;2237;51.870;6.160;2023-08-01T12:38:05;1.60;;;0.80;;
4448;SDS011;2237;51.870;6.160;2023-08-01T12:40:31;5.43;;;1.00;;
4448;SDS011;2237;51.870;6.160;2023-08-01T12:42:58;3.00;;;0.77;;
4448;SDS011;2237;51.870;6.160;2023-08-01T12:45:24;3.08;;;0.55;;
4448;SDS011;2237;51.870;6.160;2023-08-01T12:47:51;1.48;;;0.57;;
4448;SDS011;2237;51.870;6.160;2023-08-01T12:50:17;3.78;;;0.80;;
4448;SDS011;2237;51.870;6.160;2023-08-01T12:52:43;7.03;;;1.13;;
4448;SDS011;2237;51.870;6.160;2023-08-01T12:55:10;7.68;;;1.23;;
4448;SDS011;2237;51.870;6.160;2023-08-01T12:57:36;4.30;;;0.80;;
4448;SDS011;2237;51.870;6.160;2023-08-01T13:00:03;2.35;;;0.80;;
4448;SDS011;2237;51.870;6.160;2023-08-01T13:02:30;2.13;;;0.73;;
4448;SDS011;2237;51.870;6.160;2023-08-01T13:04:57;3.13;;;0.73;;
4448;SDS011;2237;51.870;6.160;2023-08-01T13:07:23;2.45;;;0.65;;
4448;SDS011;2237;51.870;6.160;2023-08-01T13:09:49;5.82;;;1.30;;
4448;SDS011;2237;51.870;6.160;2023-08-01T13:12:16;5.22;;;0.90;;
4448;SDS011;2237;51.870;6.160;2023-08-01T13:14:42;5.63;;;0.65;;
4448;SDS011;2237;51.870;6.160;2023-08-01T13:17:09;4.50;;;1.10;;
4448;SDS011;2237;51.870;6.160;2023-08-01T13:19:35;2.20;;;0.57;;
4448;SDS011;2237;51.870;6.160;2023-08-01T13:22:02;5.45;;;0.93;;
4448;SDS011;2237;51.870;6.160;2023-08-01T13:24:30;5.40;;;1.42;;
4448;SDS011;2237;51.870;6.160;2023-08-01T13:26:57;8.63;;;0.90;;
4448;SDS011;2237;51.870;6.160;2023-08-01T13:29:24;2.80;;;0.60;;
4448;SDS011;2237;51.870;6.160;2023-08-01T13:31:50;5.65;;;0.90;;
4448;SDS011;2237;51.870;6.160;2023-08-01T13:34:17;2.47;;;0.80;;
4448;SDS011;2237;51.870;6.160;2023-08-01T13:36:44;2.05;;;0.63;;
4448;SDS011;2237;51.870;6.160;2023-08-01T13:39:10;6.05;;;1.02;;
4448;SDS011;2237;51.870;6.160;2023-08-01T13:41:37;3.30;;;0.90;;
4448;SDS011;2237;51.870;6.160;2023-08-01T13:44:03;5.25;;;0.80;;
4448;SDS011;2237;51.870;6.160;2023-08-01T13:46:30;5.45;;;0.60;;
4448;SDS011;2237;51.870;6.160;2023-08-01T13:48:56;4.38;;;0.80;;
4448;SDS011;2237;51.870;6.160;2023-08-01T13:51:23;2.95;;;0.60;;
4448;SDS011;2237;51.870;6.160;2023-08-01T13:53:49;4.70;;;1.08;;
4448;SDS011;2237;51.870;6.160;2023-08-01T13:56:16;1.85;;;0.70;;
4448;SDS011;2237;51.870;6.160;2023-08-01T13:58:42;5.38;;;1.08;;
4448;SDS011;2237;51.870;6.160;2023-08-01T14:01:09;3.97;;;0.68;;
4448;SDS011;2237;51.870;6.160;2023-08-01T14:03:36;3.17;;;1.02;;
4448;SDS011;2237;51.870;6.160;2023-08-01T14:08:38;5.30;;;1.58;;
4448;SDS011;2237;51.870;6.160;2023-08-01T14:11:06;2.80;;;1.00;;
4448;SDS011;2237;51.870;6.160;2023-08-01T14:13:34;6.60;;;1.15;;
4448;SDS011;2237;51.870;6.160;2023-08-01T14:16:01;4.00;;;0.98;;
4448;SDS011;2237;51.870;6.160;2023-08-01T14:18:28;7.20;;;1.10;;
4448;SDS011;2237;51.870;6.160;2023-08-01T14:20:55;3.30;;;1.10;;
4448;SDS011;2237;51.870;6.160;2023-08-01T14:23:22;2.88;;;1.13;;
4448;SDS011;2237;51.870;6.160;2023-08-01T14:25:48;2.53;;;0.80;;
4448;SDS011;2237;51.870;6.160;2023-08-01T14:28:15;4.57;;;1.30;;
4448;SDS011;2237;51.870;6.160;2023-08-01T14:30:41;2.70;;;0.55;;
4448;SDS011;2237;51.870;6.160;2023-08-01T14:33:08;6.15;;;0.98;;
4448;SDS011;2237;51.870;6.160;2023-08-01T14:35:35;4.22;;;1.08;;
4448;SDS011;2237;51.870;6.160;2023-08-01T14:38:02;4.90;;;1.02;;
4448;SDS011;2237;51.870;6.160;2023-08-01T14:40:30;5.70;;;1.00;;
4448;SDS011;2237;51.870;6.160;2023-08-01T14:42:56;3.67;;;1.10;;
4448;SDS011;2237;51.870;6.160;2023-08-01T14:45:23;6.82;;;1.00;;
4448;SDS011;2237;51.870;6.160;2023-08-01T14:47:49;3.17;;;0.80;;
4448;SDS011;2237;51.870;6.160;2023-08-01T14:50:16;5.00;;;1.10;;
4448;SDS011;2237;51.870;6.160;2023-08-01T14:52:42;4.82;;;0.95;;
4448;SDS011;2237;51.870;6.160;2023-08-01T14:55:09;5.40;;;0.63;;
4448;SDS011;2237;51.870;6.160;2023-08-01T14:57:35;4.18;;;0.80;;
4448;SDS011;2237;51.870;6.160;2023-08-01T15:00:02;4.72;;;0.60;;
4448;SDS011;2237;51.870;6.160;2023-08-01T15:02:29;3.15;;;0.75;;
4448;SDS011;2237;51.870;6.160;2023-08-01T15:04:56;3.55;;;0.90;;
4448;SDS011;2237;51.870;6.160;2023-08-01T15:07:23;3.15;;;0.63;;
4448;SDS011;2237;51.870;6.160;2023-08-01T15:09:51;6.43;;;1.20;;
4448;SDS011;2237;51.870;6.160;2023-08-01T15:12:18;1.90;;;0.70;;
4448;SDS011;2237;51.870;6.160;2023-08-01T15:14:55;4.85;;;0.55;;
4448;SDS011;2237;51.870;6.160;2023-08-01T15:17:22;5.57;;;0.85;;
4448;SDS011;2237;51.870;6.160;2023-08-01T15:19:49;3.40;;;0.80;;
4448;SDS011;2237;51.870;6.160;2023-08-01T15:22:17;4.63;;;1.20;;
4448;SDS011;2237;51.870;6.160;2023-08-01T15:24:44;1.02;;;0.60;;
4448;SDS011;2237;51.870;6.160;2023-08-01T15:27:11;3.20;;;0.93;;
4448;SDS011;2237;51.870;6.160;2023-08-01T15:29:38;4.93;;;0.82;;
4448;SDS011;2237;51.870;6.160;2023-08-01T15:32:05;3.95;;;1.13;;
4448;SDS011;2237;51.870;6.160;2023-08-01T15:34:32;2.15;;;0.70;;
4448;SDS011;2237;51.870;6.160;2023-08-01T15:36:59;2.13;;;0.80;;
4448;SDS011;2237;51.870;6.160;2023-08-01T15:39:26;3.40;;;0.68;;
4448;SDS011;2237;51.870;6.160;2023-08-01T15:41:52;3.67;;;1.08;;
4448;SDS011;2237;51.870;6.160;2023-08-01T15:44:19;4.03;;;0.65;;
4448;SDS011;2237;51.870;6.160;2023-08-01T15:46:45;3.50;;;0.80;;
4448;SDS011;2237;51.870;6.160;2023-08-01T15:49:11;0.93;;;0.55;;
4448;SDS011;2237;51.870;6.160;2023-08-01T15:51:38;3.60;;;0.55;;
4448;SDS011;2237;51.870;6.160;2023-08-01T15:54:05;3.22;;;0.70;;
4448;SDS011;2237;51.870;6.160;2023-08-01T15:56:31;3.00;;;0.93;;
4448;SDS011;2237;51.870;6.160;2023-08-01T15:58:58;2.80;;;0.80;;
4448;SDS011;2237;51.870;6.160;2023-08-01T16:01:24;1.13;;;0.43;;
4448;SDS011;2237;51.870;6.160;2023-08-01T16:03:51;3.85;;;0.70;;
4448;SDS011;2237;51.870;6.160;2023-08-01T16:06:17;2.05;;;0.47;;
4448;SDS011;2237;51.870;6.160;2023-08-01T16:08:44;2.92;;;0.75;;
4448;SDS011;2237;51.870;6.160;2023-08-01T16:11:10;4.22;;;0.88;;
4448;SDS011;2237;51.870;6.160;2023-08-01T16:13:37;1.48;;;0.60;;
4448;SDS011;2237;51.870;6.160;2023-08-01T16:16:03;1.52;;;0.68;;
4448;SDS011;2237;51.870;6.160;2023-08-01T16:18:32;3.67;;;1.10;;
4448;SDS011;2237;51.870;6.160;2023-08-01T16:20:58;2.80;;;0.85;;
4448;SDS011;2237;51.870;6.160;2023-08-01T16:23:25;1.55;;;0.45;;
4448;SDS011;2237;51.870;6.160;2023-08-01T16:25:51;2.63;;;0.77;;
4448;SDS011;2237;51.870;6.160;2023-08-01T16:28:17;5.13;;;0.98;;
4448;SDS011;2237;51.870;6.160;2023-08-01T16:30:44;3.00;;;0.70;;
4448;SDS011;2237;51.870;6.160;2023-08-01T16:33:11;2.05;;;0.57;;
4448;SDS011;2237;51.870;6.160;2023-08-01T16:35:38;2.78;;;0.50;;
4448;SDS011;2237;51.870;6.160;2023-08-01T16:38:04;5.65;;;0.85;;
4448;SDS011;2237;51.870;6.160;2023-08-01T16:40:31;3.50;;;0.60;;
4448;SDS011;2237;51.870;6.160;2023-08-01T16:42:57;3.78;;;0.77;;
4448;SDS011;2237;51.870;6.160;2023-08-01T16:45:24;3.47;;;0.90;;
4448;SDS011;2237;51.870;6.160;2023-08-01T16:47:50;1.60;;;0.28;;
4448;SDS011;2237;51.870;6.160;2023-08-01T16:50:17;1.75;;;0.70;;
4448;SDS011;2237;51.870;6.160;2023-08-01T16:52:45;5.25;;;0.88;;
4448;SDS011;2237;51.870;6.160;2023-08-01T16:55:12;2.08;;;0.52;;
4448;SDS011;2237;51.870;6.160;2023-08-01T16:57:39;5.20;;;0.63;;
4448;SDS011;2237;51.870;6.160;2023-08-01T17:00:06;2.17;;;0.77;;
4448;SDS011;2237;51.870;6.160;2023-08-01T17:02:35;2.47;;;0.93;;
4448;SDS011;2237;51.870;6.160;2023-08-01T17:05:02;5.05;;;1.02;;
4448;SDS011;2237;51.870;6.160;2023-08-01T17:07:30;5.13;;;0.90;;
4448;SDS011;2237;51.870;6.160;2023-08-01T17:09:57;8.73;;;1.00;;
4448;SDS011;2237;51.870;6.160;2023-08-01T17:12:30;4.85;;;1.13;;
4448;SDS011;2237;51.870;6.160;2023-08-01T17:14:57;5.45;;;0.90;;
4448;SDS011;2237;51.870;6.160;2023-08-01T17:17:26;4.35;;;1.17;;
4448;SDS011;2237;51.870;6.160;2023-08-01T17:19:52;5.72;;;0.90;;
4448;SDS011;2237;51.870;6.160;2023-08-01T17:22:19;3.03;;;0.93;;
4448;SDS011;2237;51.870;6.160;2023-08-01T17:24:45;3.25;;;0.80;;
4448;SDS011;2237;51.870;6.160;2023-08-01T17:27:11;5.43;;;0.90;;
4448;SDS011;2237;51.870;6.160;2023-08-01T17:29:38;5.80;;;0.40;;
4448;SDS011;2237;51.870;6.160;2023-08-01T17:32:04;5.85;;;0.93;;
4448;SDS011;2237;51.870;6.160;2023-08-01T17:34:31;5.55;;;0.88;;
4448;SDS011;2237;51.870;6.160;2023-08-01T17:36:58;4.93;;;0.93;;
4448;SDS011;2237;51.870;6.160;2023-08-01T17:39:25;5.50;;;0.85;;
4448;SDS011;2237;51.870;6.160;2023-08-01T17:41:53;6.97;;;1.67;;
4448;SDS011;2237;51.870;6.160;2023-08-01T17:44:23;2.57;;;0.70;;
4448;SDS011;2237;51.870;6.160;2023-08-01T17:48:41;3.70;;;1.00;;
4448;SDS011;2237;51.870;6.160;2023-08-01T17:51:08;3.47;;;0.80;;
4448;SDS011;2237;51.870;6.160;2023-08-01T17:53:35;2.83;;;1.25;;
4448;SDS011;2237;51.870;6.160;2023-08-01T17:56:05;7.65;;;1.10;;
4448;SDS011;2237;51.870;6.160;2023-08-01T17:58:32;6.15;;;1.20;;
4448;SDS011;2237;51.870;6.160;2023-08-01T18:00:58;3.20;;;0.90;;
4448;SDS011;2237;51.870;6.160;2023-08-01T18:03:25;5.70;;;1.00;;
4448;SDS011;2237;51.870;6.160;2023-08-01T18:08:31;6.00;;;1.00;;
4448;SDS011;2237;51.870;6.160;2023-08-01T18:10:58;4.80;;;0.93;;
4448;SDS011;2237;51.870;6.160;2023-08-01T18:13:24;4.63;;;0.98;;
4448;SDS011;2237;51.870;6.160;2023-08-01T18:15:51;4.25;;;1.20;;
4448;SDS011;2237;51.870;6.160;2023-08-01T18:18:18;8.85;;;0.90;;
4448;SDS011;2237;51.870;6.160;2023-08-01T18:20:45;4.38;;;0.90;;
4448;SDS011;2237;51.870;6.160;2023-08-01T18:23:11;2.85;;;0.95;;
4448;SDS011;2237;51.870;6.160;2023-08-01T18:25:38;3.40;;;0.80;;
4448;SDS011;2237;51.870;6.160;2023-08-01T18:28:04;4.10;;;0.80;;
4448;SDS011;2237;51.870;6.160;2023-08-01T18:30:31;5.80;;;0.85;;
4448;SDS011;2237;51.870;6.160;2023-08-01T18:32:57;7.18;;;1.35;;
4448;SDS011;2237;51.870;6.160;2023-08-01T18:35:24;2.78;;;0.70;;
4448;SDS011;2237;51.870;6.160;2023-08-01T18:37:50;2.63;;;1.00;;
4448;SDS011;2237;51.870;6.160;2023-08-01T18:40:16;3.60;;;0.93;;
4448;SDS011;2237;51.870;6.160;2023-08-01T18:42:43;1.98;;;0.82;;
4448;SDS011;2237;51.870;6.160;2023-08-01T18:45:09;5.60;;;1.20;;
4448;SDS011;2237;51.870;6.160;2023-08-01T18:47:36;5.25;;;1.23;;
4448;SDS011;2237;51.870;6.160;2023-08-01T18:50:03;3.67;;;0.95;;
4448;SDS011;2237;51.870;6.160;2023-08-01T18:52:30;2.63;;;0.70;;
4448;SDS011;2237;51.870;6.160;2023-08-01T18:54:58;2.03;;;0.75;;
4448;SDS011;2237;51.870;6.160;2023-08-01T18:57:25;1.95;;;0.68;;
4448;SDS011;2237;51.870;6.160;2023-08-01T18:59:51;8.18;;;1.08;;
4448;SDS011;2237;51.870;6.160;2023-08-01T19:02:18;7.20;;;1.45;;
4448;SDS011;2237;51.870;6.160;2023-08-01T19:04:44;5.03;;;1.10;;
4448;SDS011;2237;51.870;6.160;2023-08-01T19:07:11;6.20;;;1.58;;
4448;SDS011;2237;51.870;6.160;2023-08-01T19:09:37;4.50;;;1.38;;
4448;SDS011;2237;51.870;6.160;2023-08-01T19:12:04;3.60;;;1.20;;
4448;SDS011;2237;51.870;6.160;2023-08-01T19:14:32;3.25;;;0.80;;
4448;SDS011;2237;51.870;6.160;2023-08-01T19:16:59;5.97;;;1.30;;
4448;SDS011;2237;51.870;6.160;2023-08-01T19:19:25;3.90;;;0.90;;
4448;SDS011;2237;51.870;6.160;2023-08-01T19:21:52;7.20;;;1.42;;
4448;SDS011;2237;51.870;6.160;2023-08-01T19:24:19;3.60;;;1.08;;
4448;SDS011;2237;51.870;6.160;2023-08-01T19:26:48;4.25;;;0.90;;
4448;SDS011;2237;51.870;6.160;2023-08-01T19:29:14;5.85;;;0.80;;
4448;SDS011;2237;51.870;6.160;2023-08-01T19:31:41;3.40;;;0.95;;
4448;SDS011;2237;51.870;6.160;2023-08-01T19:34:08;5.30;;;1.33;;
4448;SDS011;2237;51.870;6.160;2023-08-01T19:36:34;4.38;;;1.00;;
4448;SDS011;2237;51.870;6.160;2023-08-01T19:39:01;5.72;;;1.27;;
4448;SDS011;2237;51.870;6.160;2023-08-01T19:41:28;3.72;;;0.93;;
4448;SDS011;2237;51.870;6.160;2023-08-01T19:43:55;4.30;;;0.90;;
4448;SDS011;2237;51.870;6.160;2023-08-01T19:46:22;2.42;;;0.93;;
4448;SDS011;2237;51.870;6.160;2023-08-01T19:48:49;2.80;;;0.80;;
4448;SDS011;2237;51.870;6.160;2023-08-01T19:51:15;5.70;;;0.77;;
4448;SDS011;2237;51.870;6.160;2023-08-01T19:53:43;5.15;;;1.40;;
4448;SDS011;2237;51.870;6.160;2023-08-01T19:56:09;4.82;;;1.10;;
4448;SDS011;2237;51.870;6.160;2023-08-01T19:58:36;5.15;;;1.10;;
4448;SDS011;2237;51.870;6.160;2023-08-01T20:01:03;4.40;;;0.98;;
4448;SDS011;2237;51.870;6.160;2023-08-01T20:03:30;5.28;;;0.90;;
4448;SDS011;2237;51.870;6.160;2023-08-01T20:05:58;7.82;;;1.38;;
4448;SDS011;2237;51.870;6.160;2023-08-01T20:08:25;5.25;;;1.60;;
4448;SDS011;2237;51.870;6.160;2023-08-01T20:10:55;6.03;;;1.02;;
4448;SDS011;2237;51.870;6.160;2023-08-01T20:13:25;2.88;;;0.90;;
4448;SDS011;2237;51.870;6.160;2023-08-01T20:15:52;6.70;;;1.05;;
4448;SDS011;2237;51.870;6.160;2023-08-01T20:18:19;6.65;;;1.00;;
4448;SDS011;2237;51.870;6.160;2023-08-01T20:20:46;4.35;;;1.05;;
4448;SDS011;2237;51.870;6.160;2023-08-01T20:23:13;2.38;;;0.80;;
4448;SDS011;2237;51.870;6.160;2023-08-01T20:25:40;3.80;;;0.90;;
4448;SDS011;2237;51.870;6.160;2023-08-01T20:28:09;3.72;;;1.00;;
4448;SDS011;2237;51.870;6.160;2023-08-01T20:30:36;4.65;;;1.02;;
4448;SDS011;2237;51.870;6.160;2023-08-01T20:33:02;3.00;;;1.38;;
4448;SDS011;2237;51.870;6.160;2023-08-01T20:35:29;3.67;;;1.10;;
4448;SDS011;2237;51.870;6.160;2023-08-01T20:37:56;4.68;;;1.20;;
4448;SDS011;2237;51.870;6.160;2023-08-01T20:40:22;2.53;;;1.05;;
4448;SDS011;2237;51.870;6.160;2023-08-01T20:42:52;4.90;;;1.40;;
4448;SDS011;2237;51.870;6.160;2023-08-01T20:45:18;4.57;;;1.20;;
4448;SDS011;2237;51.870;6.160;2023-08-01T20:47:45;4.43;;;1.10;;
4448;SDS011;2237;51.870;6.160;2023-08-01T20:50:12;5.43;;;1.13;;
4448;SDS011;2237;51.870;6.160;2023-08-01T20:52:38;5.55;;;1.00;;
4448;SDS011;2237;51.870;6.160;2023-08-01T20:55:05;5.20;;;1.10;;
4448;SDS011;2237;51.870;6.160;2023-08-01T20:57:31;7.15;;;1.35;;
4448;SDS011;2237;51.870;6.160;2023-08-01T20:59:58;3.83;;;1.20;;
4448;SDS011;2237;51.870;6.160;2023-08-01T21:02:24;4.63;;;1.13;;
4448;SDS011;2237;51.870;6.160;2023-08-01T21:04:51;6.18;;;1.20;;
4448;SDS011;2237;51.870;6.160;2023-08-01T21:07:19;5.63;;;1.67;;
4448;SDS011;2237;51.870;6.160;2023-08-01T21:09:47;6.35;;;1.23;;
4448;SDS011;2237;51.870;6.160;2023-08-01T21:12:13;7.10;;;1.55;;
4448;SDS011;2237;51.870;6.160;2023-08-01T21:14:40;4.43;;;1.40;;
4448;SDS011;2237;51.870;6.160;2023-08-01T21:17:06;5.40;;;1.45;;
4448;SDS011;2237;51.870;6.160;2023-08-01T21:19:33;5.93;;;1.50;;